Time;durP1;ratioP1;P1;durP2;ratioP2;P2;SDS_P1;SDS_P2;PMS_P1;PMS_P2;Temp;Humidity;BMP_temperature;BMP_pressure;BME280_temperature;BME280_humidity;BME280_pressure;Samples;Min_cycle;Max_cycle;Signal;HPM_P1;HPM_P2
2023/06/07 00:01:49;;;;;;;10.38;6.63;;;;;;;;;;4963522;28;20038;-83
2023/06/07 00:04:35;;;;;;;12.98;7.65;;;;;;;;;;4977620;28;20051;-83
2023/06/07 00:07:21;;;;;;;10.50;6.25;;;;;;;;;;4968968;28;20046;-83
2023/06/07 00:10:07;;;;;;;9.20;6.20;;;;;;;;;;4977326;28;20043;-84
2023/06/07 00:12:52;;;;;;;9.85;6.20;;;;;;;;;;4968735;28;20051;-83
2023/06/07 00:15:36;;;;;;;11.85;5.63;;;;;;;;;;4962447;28;20043;-83
2023/06/07 00:18:22;;;;;;;9.57;5.70;;;;;;;;;;4969123;28;20046;-83
2023/06/07 00:21:08;;;;;;;13.38;5.63;;;;;;;;;;4962561;28;20042;-82
2023/06/07 00:23:54;;;;;;;12.93;6.85;;;;;;;;;;4977208;28;20046;-83
2023/06/07 00:26:39;;;;;;;20.67;7.88;;;;;;;;;;4955050;28;20059;-82
2023/06/07 00:29:26;;;;;;;12.93;7.68;;;;;;;;;;4969355;28;20403;-82
2023/06/07 00:32:12;;;;;;;12.38;7.93;;;;;;;;;;4955505;28;20047;-82
2023/06/07 00:34:57;;;;;;;21.98;8.18;;;;;;;;;;4968588;28;20067;-80
2023/06/07 00:37:43;;;;;;;12.30;7.75;;;;;;;;;;4969531;28;20408;-82
2023/06/07 00:40:29;;;;;;;13.68;8.90;;;;;;;;;;4955841;28;20051;-83
2023/06/07 00:43:15;;;;;;;16.17;8.35;;;;;;;;;;4955610;28;20043;-83
2023/06/07 00:46:01;;;;;;;14.35;8.77;;;;;;;;;;4976780;28;20046;-83
2023/06/07 00:48:49;;;;;;;16.50;9.02;;;;;;;;;;4954902;28;20055;-83
2023/06/07 00:51:36;;;;;;;20.00;9.35;;;;;;;;;;4968499;28;20407;-83
2023/06/07 00:54:22;;;;;;;18.58;9.07;;;;;;;;;;4968379;28;20038;-82
2023/06/07 00:57:07;;;;;;;15.80;8.80;;;;;;;;;;4976573;28;20054;-83
2023/06/07 00:59:54;;;;;;;15.43;8.95;;;;;;;;;;4968483;28;20046;-82
2023/06/07 01:02:40;;;;;;;18.15;8.82;;;;;;;;;;4954100;28;20054;-82
2023/06/07 01:05:26;;;;;;;19.20;8.52;;;;;;;;;;4968221;28;20038;-83
2023/06/07 01:08:12;;;;;;;15.05;8.98;;;;;;;;;;4961824;28;20054;-83
2023/06/07 01:10:59;;;;;;;21.58;9.77;;;;;;;;;;4967235;28;20046;-83
2023/06/07 01:13:45;;;;;;;18.90;10.38;;;;;;;;;;4961571;28;20047;-84
2023/06/07 01:16:31;;;;;;;14.68;10.20;;;;;;;;;;4961019;28;20046;-83
2023/06/07 01:19:21;;;;;;;18.45;9.65;;;;;;;;;;4961471;28;20051;-83
2023/06/07 01:22:10;;;;;;;16.17;9.45;;;;;;;;;;4968096;28;20435;-83
2023/06/07 01:25:00;;;;;;;23.75;10.30;;;;;;;;;;4967609;28;20487;-84
2023/06/07 01:27:47;;;;;;;18.73;9.13;;;;;;;;;;4967640;28;20046;-85
2023/06/07 01:30:33;;;;;;;15.23;9.75;;;;;;;;;;4960865;28;20419;-84
2023/06/07 01:33:19;;;;;;;17.15;9.20;;;;;;;;;;4967912;28;20039;-85
2023/06/07 01:36:06;;;;;;;17.65;8.32;;;;;;;;;;4954301;28;20484;-84
2023/06/07 01:38:52;;;;;;;12.75;8.80;;;;;;;;;;4967294;28;20042;-84
2023/06/07 01:41:37;;;;;;;12.98;8.98;;;;;;;;;;4967435;28;20050;-84
2023/06/07 01:44:22;;;;;;;16.38;8.00;;;;;;;;;;4953808;28;20068;-85
2023/06/07 01:47:09;;;;;;;13.40;8.40;;;;;;;;;;4954081;28;20042;-85
2023/06/07 01:49:54;;;;;;;15.05;8.18;;;;;;;;;;4967340;28;20054;-84
2023/06/07 01:52:40;;;;;;;11.70;6.85;;;;;;;;;;4966988;28;20051;-84
2023/06/07 01:55:25;;;;;;;13.77;7.72;;;;;;;;;;4966015;28;20043;-85
2023/06/07 01:58:40;;;;;;;21.15;7.05;;;;;;;;;;4967062;28;20059;-85
2023/06/07 02:01:33;;;;;;;7.78;6.30;;;;;;;;;;4967641;28;20042;-84
2023/06/07 02:04:20;;;;;;;8.85;6.18;;;;;;;;;;4967086;28;20042;-84
2023/06/07 02:07:12;;;;;;;13.88;6.60;;;;;;;;;;4953853;28;20050;-84
2023/06/07 02:09:58;;;;;;;9.80;6.55;;;;;;;;;;4967285;28;20043;-84
2023/06/07 02:12:45;;;;;;;10.85;6.05;;;;;;;;;;4966607;28;20479;-84
2023/06/07 02:15:30;;;;;;;10.13;6.60;;;;;;;;;;4966759;28;20050;-85
2023/06/07 02:18:19;;;;;;;8.05;6.05;;;;;;;;;;4974246;28;20480;-85
2023/06/07 02:21:05;;;;;;;10.18;6.13;;;;;;;;;;4967000;28;20043;-85
2023/06/07 02:23:51;;;;;;;8.65;6.43;;;;;;;;;;4966151;28;20043;-85
2023/06/07 02:26:36;;;;;;;11.60;5.88;;;;;;;;;;4966533;28;20043;-85
2023/06/07 02:29:22;;;;;;;7.88;6.35;;;;;;;;;;4967382;28;20047;-84
2023/06/07 02:32:08;;;;;;;15.07;6.57;;;;;;;;;;4967029;28;20047;-85
2023/06/07 02:34:52;;;;;;;10.63;6.88;;;;;;;;;;4959948;28;20046;-84
2023/06/07 02:37:38;;;;;;;8.02;6.15;;;;;;;;;;4953495;28;20050;-84
2023/06/07 02:40:24;;;;;;;8.95;6.32;;;;;;;;;;4966454;28;20403;-84
2023/06/07 02:43:09;;;;;;;8.55;5.88;;;;;;;;;;4966738;28;20411;-84
2023/06/07 02:45:54;;;;;;;14.52;6.38;;;;;;;;;;4966628;28;20484;-85
2023/06/07 02:48:40;;;;;;;11.15;6.43;;;;;;;;;;4966375;28;20050;-84
2023/06/07 02:51:26;;;;;;;11.13;6.60;;;;;;;;;;4966671;28;20046;-84
2023/06/07 02:54:11;;;;;;;11.40;6.55;;;;;;;;;;4966322;28;20042;-84
2023/06/07 02:56:57;;;;;;;9.05;6.63;;;;;;;;;;4961486;28;20055;-85
2023/06/07 02:59:44;;;;;;;8.52;6.22;;;;;;;;;;4965757;28;20054;-84
2023/06/07 03:02:34;;;;;;;10.30;7.00;;;;;;;;;;4966836;28;20042;-85
2023/06/07 03:05:20;;;;;;;8.40;6.28;;;;;;;;;;4966539;28;20050;-84
2023/06/07 03:08:10;;;;;;;10.07;6.90;;;;;;;;;;4966464;28;20055;-84
2023/06/07 03:10:57;;;;;;;7.88;6.20;;;;;;;;;;4966896;28;20395;-84
2023/06/07 03:13:48;;;;;;;9.48;6.95;;;;;;;;;;4966424;28;20043;-84
2023/06/07 03:16:38;;;;;;;10.85;7.55;;;;;;;;;;4966001;28;20043;-85
2023/06/07 03:19:24;;;;;;;12.15;7.07;;;;;;;;;;4966412;28;20058;-84
2023/06/07 03:22:12;;;;;;;9.75;6.80;;;;;;;;;;4952994;28;20050;-84
2023/06/07 03:25:03;;;;;;;8.80;6.57;;;;;;;;;;4954957;28;20066;-85
2023/06/07 03:27:50;;;;;;;13.23;6.85;;;;;;;;;;4969983;28;20042;-84
2023/06/07 03:30:42;;;;;;;13.75;7.18;;;;;;;;;;4969588;28;20054;-85
2023/06/07 03:33:27;;;;;;;10.57;7.55;;;;;;;;;;4983477;28;20050;-84
2023/06/07 03:36:20;;;;;;;11.57;6.70;;;;;;;;;;4982082;28;20051;-84
2023/06/07 03:39:08;;;;;;;12.00;7.80;;;;;;;;;;4969832;28;20039;-85
2023/06/07 03:41:54;;;;;;;10.23;7.13;;;;;;;;;;4969947;28;20043;-85
2023/06/07 03:44:43;;;;;;;12.68;7.05;;;;;;;;;;4953061;28;20407;-83
2023/06/07 03:47:28;;;;;;;16.65;8.80;;;;;;;;;;4966621;28;20476;-84
2023/06/07 03:50:14;;;;;;;11.85;7.93;;;;;;;;;;4955497;28;20047;-83
2023/06/07 03:53:00;;;;;;;9.85;7.32;;;;;;;;;;4962375;28;20047;-84
2023/06/07 03:55:48;;;;;;;13.23;7.50;;;;;;;;;;4962499;28;20043;-83
2023/06/07 03:58:35;;;;;;;11.90;7.35;;;;;;;;;;4969210;28;20047;-84
2023/06/07 04:01:33;;;;;;;11.30;6.70;;;;;;;;;;4943738;28;20043;-84
2023/06/07 04:04:20;;;;;;;8.48;6.43;;;;;;;;;;4938158;28;20048;-84
2023/06/07 04:07:07;;;;;;;13.27;6.35;;;;;;;;;;4963361;28;20395;-84
2023/06/07 04:09:53;;;;;;;8.95;6.05;;;;;;;;;;4953803;28;20039;-83
2023/06/07 04:12:41;;;;;;;8.55;6.22;;;;;;;;;;4948233;28;20047;-84
2023/06/07 04:15:26;;;;;;;7.95;6.53;;;;;;;;;;4962324;28;20046;-84
2023/06/07 04:18:12;;;;;;;49.65;25.50;;;;;;;;;;4950336;28;20403;-84
2023/06/07 04:20:59;;;;;;;30.33;15.57;;;;;;;;;;4949827;28;20051;-84
2023/06/07 04:23:44;;;;;;;18.42;11.15;;;;;;;;;;4949456;28;20051;-84
2023/06/07 04:26:35;;;;;;;19.58;8.00;;;;;;;;;;4950042;28;20043;-84
2023/06/07 04:29:21;;;;;;;12.50;7.30;;;;;;;;;;4949566;28;20043;-84
2023/06/07 04:32:09;;;;;;;8.05;6.72;;;;;;;;;;4936212;28;20055;-83
2023/06/07 04:34:59;;;;;;;12.10;7.32;;;;;;;;;;4936772;28;20055;-84
2023/06/07 04:37:45;;;;;;;11.25;7.38;;;;;;;;;;4949612;28;20392;-84
2023/06/07 04:40:33;;;;;;;14.55;6.95;;;;;;;;;;4948913;28;20400;-84
2023/06/07 04:43:19;;;;;;;10.65;6.40;;;;;;;;;;4949687;28;20428;-84
2023/06/07 04:46:09;;;;;;;9.70;6.03;;;;;;;;;;4949463;28;20039;-85
2023/06/07 04:48:55;;;;;;;9.68;6.60;;;;;;;;;;4948383;28;20050;-84
2023/06/07 04:51:41;;;;;;;9.68;7.03;;;;;;;;;;4955054;28;20038;-84
2023/06/07 04:54:29;;;;;;;14.68;6.75;;;;;;;;;;4968072;28;20050;-85
2023/06/07 04:57:17;;;;;;;7.90;6.03;;;;;;;;;;4962288;28;20483;-85
2023/06/07 05:00:06;;;;;;;11.48;6.72;;;;;;;;;;4981509;28;20043;-84
2023/06/07 05:02:58;;;;;;;10.40;6.43;;;;;;;;;;4948922;28;20051;-84
2023/06/07 05:05:45;;;;;;;11.05;5.38;;;;;;;;;;4948526;28;20035;-84
2023/06/07 05:08:31;;;;;;;9.93;6.03;;;;;;;;;;4956640;29;20043;-84
2023/06/07 05:11:16;;;;;;;9.52;5.90;;;;;;;;;;4958830;28;20488;-84
2023/06/07 05:14:02;;;;;;;18.35;6.57;;;;;;;;;;4955884;28;20039;-85
2023/06/07 05:16:48;;;;;;;11.27;6.03;;;;;;;;;;4957151;28;20476;-84
2023/06/07 05:19:37;;;;;;;8.90;5.88;;;;;;;;;;4937712;28;20043;-85
2023/06/07 05:22:22;;;;;;;9.10;5.80;;;;;;;;;;4937808;28;20063;-85
2023/06/07 05:25:09;;;;;;;9.27;5.80;;;;;;;;;;4944611;28;20039;-85
2023/06/07 05:27:55;;;;;;;11.68;6.50;;;;;;;;;;4954013;28;20046;-85
2023/06/07 05:30:40;;;;;;;10.60;6.55;;;;;;;;;;4961291;28;20050;-86
2023/06/07 05:33:27;;;;;;;9.52;6.43;;;;;;;;;;4953939;28;20050;-86
2023/06/07 05:36:12;;;;;;;10.63;6.00;;;;;;;;;;4966029;28;20059;-86
2023/06/07 05:39:00;;;;;;;10.40;5.53;;;;;;;;;;4966840;28;20051;-86
2023/06/07 05:41:45;;;;;;;12.52;5.63;;;;;;;;;;4967142;28;20043;-86
2023/06/07 05:44:31;;;;;;;9.93;6.05;;;;;;;;;;4980105;28;20054;-86
2023/06/07 05:47:20;;;;;;;17.08;6.68;;;;;;;;;;4966746;28;20050;-85
2023/06/07 05:50:06;;;;;;;8.57;5.25;;;;;;;;;;4980496;28;20054;-86
2023/06/07 05:52:57;;;;;;;7.18;5.13;;;;;;;;;;4967581;28;20043;-85
2023/06/07 05:55:45;;;;;;;7.50;4.07;;;;;;;;;;4979489;28;20047;-86
2023/06/07 05:58:31;;;;;;;6.93;4.05;;;;;;;;;;4966914;28;20050;-85
2023/06/07 06:01:17;;;;;;;7.13;4.28;;;;;;;;;;4981013;28;20046;-85
2023/06/07 06:04:03;;;;;;;8.45;4.05;;;;;;;;;;4941504;28;20091;-86
2023/06/07 06:06:48;;;;;;;7.85;4.25;;;;;;;;;;4952750;29;20043;-84
2023/06/07 06:09:33;;;;;;;10.18;4.55;;;;;;;;;;4944085;28;20043;-85
2023/06/07 06:12:19;;;;;;;10.75;4.07;;;;;;;;;;4964476;28;20043;-85
2023/06/07 06:15:05;;;;;;;5.88;4.20;;;;;;;;;;4943861;28;20035;-85
2023/06/07 06:17:54;;;;;;;9.68;3.47;;;;;;;;;;4944063;28;20388;-89
2023/06/07 06:20:40;;;;;;;4.45;3.80;;;;;;;;;;4943983;28;20051;-84
2023/06/07 06:23:26;;;;;;;6.03;3.90;;;;;;;;;;4937670;28;20039;-85
2023/06/07 06:26:12;;;;;;;7.00;4.03;;;;;;;;;;4943006;28;20488;-86
2023/06/07 06:28:58;;;;;;;7.68;3.78;;;;;;;;;;4943763;28;20059;-85
2023/06/07 06:31:43;;;;;;;10.18;4.38;;;;;;;;;;4957127;28;20039;-84
2023/06/07 06:34:30;;;;;;;5.22;3.42;;;;;;;;;;4937643;28;20495;-84
2023/06/07 06:37:15;;;;;;;5.32;3.78;;;;;;;;;;4937309;28;20042;-84
2023/06/07 06:40:00;;;;;;;7.78;4.10;;;;;;;;;;4943207;28;20047;-85
2023/06/07 06:42:45;;;;;;;8.82;3.53;;;;;;;;;;4944042;29;20039;-85
2023/06/07 06:45:53;;;;;;;6.07;3.63;;;;;;;;;;4943834;29;20031;-84
2023/06/07 06:48:38;;;;;;;6.53;3.88;;;;;;;;;;4943855;29;20043;-84
2023/06/07 06:51:23;;;;;;;5.38;3.88;;;;;;;;;;4937395;29;20047;-84
2023/06/07 06:54:08;;;;;;;4.40;3.53;;;;;;;;;;4943759;29;20051;-84
2023/06/07 06:56:55;;;;;;;7.90;3.80;;;;;;;;;;4932279;29;20423;-85
2023/06/07 06:59:40;;;;;;;6.30;4.30;;;;;;;;;;4945016;28;20039;-84
2023/06/07 07:02:26;;;;;;;6.72;3.60;;;;;;;;;;4947854;28;20043;-85
2023/06/07 07:05:11;;;;;;;6.20;3.67;;;;;;;;;;4947411;28;20050;-84
2023/06/07 07:07:57;;;;;;;7.68;3.55;;;;;;;;;;4947591;28;20043;-85
2023/06/07 07:10:43;;;;;;;7.05;4.10;;;;;;;;;;4947034;28;20043;-85
2023/06/07 07:13:29;;;;;;;6.18;4.35;;;;;;;;;;4947390;28;20122;-84
2023/06/07 07:16:16;;;;;;;10.15;4.90;;;;;;;;;;4967391;28;20035;-84
2023/06/07 07:19:02;;;;;;;11.40;5.10;;;;;;;;;;4968044;28;20399;-85
2023/06/07 07:21:47;;;;;;;8.15;4.85;;;;;;;;;;4947479;28;20035;-84
2023/06/07 07:24:32;;;;;;;6.97;4.68;;;;;;;;;;4967515;28;20043;-83
2023/06/07 07:27:21;;;;;;;7.20;4.38;;;;;;;;;;4946806;28;20047;-84
2023/06/07 07:30:09;;;;;;;9.60;4.53;;;;;;;;;;4947155;28;20051;-84
2023/06/07 07:32:57;;;;;;;8.82;4.68;;;;;;;;;;4947341;28;20043;-84
2023/06/07 07:35:43;;;;;;;6.05;4.10;;;;;;;;;;4953689;28;20047;-83
2023/06/07 07:38:32;;;;;;;7.45;4.22;;;;;;;;;;4947241;28;20035;-83
2023/06/07 07:41:17;;;;;;;7.82;4.60;;;;;;;;;;4946590;28;20038;-83
2023/06/07 07:44:04;;;;;;;10.02;4.57;;;;;;;;;;4960266;28;20496;-83
2023/06/07 07:46:49;;;;;;;11.30;5.40;;;;;;;;;;4946791;28;20035;-83
2023/06/07 07:49:53;;;;;;;6.20;4.50;;;;;;;;;;4942833;29;20040;-83
2023/06/07 07:52:40;;;;;;;5.50;4.68;;;;;;;;;;4946553;28;20051;-83
2023/06/07 07:55:25;;;;;;;8.30;4.78;;;;;;;;;;4939057;28;20047;-83
2023/06/07 07:58:11;;;;;;;7.28;4.47;;;;;;;;;;4947007;28;20047;-82
2023/06/07 08:00:57;;;;;;;7.25;4.45;;;;;;;;;;4954624;29;20039;-82
2023/06/07 08:03:42;;;;;;;7.43;4.55;;;;;;;;;;4953105;29;20473;-83
2023/06/07 08:06:28;;;;;;;6.95;4.30;;;;;;;;;;4952867;28;20059;-82
2023/06/07 08:09:14;;;;;;;4.93;4.15;;;;;;;;;;4946375;28;20051;-82
2023/06/07 08:11:59;;;;;;;10.30;4.18;;;;;;;;;;4959544;28;20051;-82
2023/06/07 08:14:44;;;;;;;7.85;4.80;;;;;;;;;;4954509;29;20479;-83
2023/06/07 08:17:30;;;;;;;5.93;4.50;;;;;;;;;;4954099;29;20039;-83
2023/06/07 08:20:16;;;;;;;6.90;4.57;;;;;;;;;;4939412;29;20491;-83
2023/06/07 08:23:01;;;;;;;8.77;4.95;;;;;;;;;;4953212;29;20055;-82
2023/06/07 08:25:47;;;;;;;8.52;4.60;;;;;;;;;;4939010;29;20051;-83
2023/06/07 08:28:32;;;;;;;7.75;4.68;;;;;;;;;;4938904;28;20047;-82
2023/06/07 08:31:18;;;;;;;6.10;4.57;;;;;;;;;;4951717;28;20046;-82
2023/06/07 08:34:04;;;;;;;7.93;4.75;;;;;;;;;;4959204;28;20055;-82
2023/06/07 08:36:50;;;;;;;7.65;4.70;;;;;;;;;;4938913;28;20038;-83
2023/06/07 08:39:36;;;;;;;10.80;4.80;;;;;;;;;;4939413;28;20043;-83
2023/06/07 08:42:21;;;;;;;8.88;4.63;;;;;;;;;;4953792;29;20046;-82
2023/06/07 08:45:07;;;;;;;7.97;4.80;;;;;;;;;;4944354;28;20039;-82
2023/06/07 08:47:53;;;;;;;8.82;5.57;;;;;;;;;;4959183;28;20142;-83
2023/06/07 08:50:41;;;;;;;7.68;4.60;;;;;;;;;;4959079;28;20047;-83
2023/06/07 08:53:47;;;;;;;6.47;5.20;;;;;;;;;;4945100;28;20399;-83
2023/06/07 08:56:33;;;;;;;6.97;4.70;;;;;;;;;;4942039;28;20496;-83
2023/06/07 08:59:20;;;;;;;6.63;4.35;;;;;;;;;;4953570;29;20048;-82
2023/06/07 09:02:06;;;;;;;9.27;5.85;;;;;;;;;;4953219;29;20047;-83
2023/06/07 09:04:51;;;;;;;18.15;10.15;;;;;;;;;;4938633;28;20051;-83
2023/06/07 09:07:37;;;;;;;6.05;3.88;;;;;;;;;;4953316;29;20043;-83
2023/06/07 09:10:22;;;;;;;5.75;4.22;;;;;;;;;;4945540;28;20047;-83
2023/06/07 09:13:08;;;;;;;6.93;4.53;;;;;;;;;;4944919;28;20411;-83
2023/06/07 09:15:56;;;;;;;5.03;4.03;;;;;;;;;;4953250;29;20043;-82
2023/06/07 09:18:47;;;;;;;7.97;3.75;;;;;;;;;;4938147;29;20055;-82
2023/06/07 09:21:32;;;;;;;5.80;3.92;;;;;;;;;;4952216;28;20039;-82
2023/06/07 09:24:27;;;;;;;6.00;4.38;;;;;;;;;;4952960;29;20047;-82
2023/06/07 09:27:13;;;;;;;;;;;;;;;;;;4945404;28;20047;-82
2023/06/07 09:30:05;;;;;;;7.68;4.10;;;;;;;;;;4945213;28;19914;-82
2023/06/07 09:32:49;;;;;;;6.65;3.78;;;;;;;;;;4965044;28;20047;-82
2023/06/07 09:35:35;;;;;;;5.63;4.40;;;;;;;;;;4958520;28;20479;-82
2023/06/07 09:38:26;;;;;;;8.63;4.30;;;;;;;;;;4944939;29;20043;-82
2023/06/07 09:41:13;;;;;;;6.15;4.18;;;;;;;;;;4952450;29;20039;-82
2023/06/07 09:43:58;;;;;;;10.32;3.63;;;;;;;;;;4952985;29;20055;-83
2023/06/07 09:46:44;;;;;;;5.13;4.05;;;;;;;;;;4937978;29;20051;-82
2023/06/07 09:49:34;;;;;;;6.47;3.90;;;;;;;;;;4952764;29;20043;-83
2023/06/07 09:52:19;;;;;;;9.85;4.18;;;;;;;;;;4965230;28;20051;-84
2023/06/07 09:55:06;;;;;;;6.32;4.07;;;;;;;;;;4957498;28;20051;-84
2023/06/07 09:57:52;;;;;;;6.78;4.07;;;;;;;;;;4944201;28;20035;-84
2023/06/07 10:00:42;;;;;;;7.32;3.70;;;;;;;;;;4937495;28;20051;-83
2023/06/07 10:03:27;;;;;;;5.63;3.80;;;;;;;;;;4963956;28;20043;-84
2023/06/07 10:06:16;;;;;;;4.80;3.90;;;;;;;;;;4944810;29;20042;-83
2023/06/07 10:09:05;;;;;;;8.80;3.75;;;;;;;;;;4937535;29;20058;-82
2023/06/07 10:11:55;;;;;;;7.00;4.35;;;;;;;;;;4937690;28;20051;-83
2023/06/07 10:14:44;;;;;;;5.70;3.45;;;;;;;;;;4964510;28;20039;-83
2023/06/07 10:17:39;;;;;;;5.40;3.90;;;;;;;;;;4937392;29;20043;-83
2023/06/07 10:20:30;;;;;;;6.45;3.72;;;;;;;;;;4952509;29;20039;-83
2023/06/07 10:23:26;;;;;;;5.93;4.50;;;;;;;;;;4963997;28;20043;-83
2023/06/07 10:26:29;;;;;;;7.10;4.18;;;;;;;;;;4951313;28;20063;-83
2023/06/07 10:29:20;;;;;;;7.03;4.20;;;;;;;;;;4936423;28;20055;-82
2023/06/07 10:32:09;;;;;;;6.03;4.20;;;;;;;;;;4957307;28;20396;-83
2023/06/07 10:34:55;;;;;;;5.53;3.85;;;;;;;;;;4956526;28;20480;-83
2023/06/07 10:37:42;;;;;;;4.90;3.85;;;;;;;;;;4952009;28;20042;-81
2023/06/07 10:40:28;;;;;;;6.85;3.80;;;;;;;;;;4951948;29;20035;-82
2023/06/07 10:43:14;;;;;;;4.65;3.92;;;;;;;;;;4950632;28;20059;-83
2023/06/07 10:46:22;;;;;;;7.70;4.38;;;;;;;;;;4956872;28;20048;-83
2023/06/07 10:49:34;;;;;;;7.35;3.95;;;;;;;;;;4944156;29;20047;-81
2023/06/07 10:52:20;;;;;;;7.20;4.53;;;;;;;;;;4951961;29;20404;-82
2023/06/07 10:55:30;;;;;;;6.03;4.25;;;;;;;;;;4924071;29;20043;-82
2023/06/07 10:58:29;;;;;;;8.68;4.25;;;;;;;;;;4950654;29;20508;-83
2023/06/07 11:01:33;;;;;;;5.25;3.60;;;;;;;;;;4949857;29;20511;-81
2023/06/07 11:04:42;;;;;;;5.32;4.28;;;;;;;;;;4949443;28;20488;-82
2023/06/07 11:07:35;;;;;;;8.65;4.18;;;;;;;;;;4951447;29;20395;-81
2023/06/07 11:10:20;;;;;;;9.95;4.75;;;;;;;;;;4951631;29;20047;-82
2023/06/07 11:13:06;;;;;;;7.30;4.90;;;;;;;;;;4950196;28;20408;-80
2023/06/07 11:15:51;;;;;;;7.47;4.22;;;;;;;;;;4951921;29;20039;-81
2023/06/07 11:18:56;;;;;;;7.45;5.45;;;;;;;;;;4950206;29;20047;-82
2023/06/07 11:21:54;;;;;;;;;;;;;;;;;;4951905;28;20048;-82
2023/06/07 11:24:39;;;;;;;5.30;4.45;;;;;;;;;;4951226;29;19915;-81
2023/06/07 11:27:25;;;;;;;6.88;4.18;;;;;;;;;;4951805;29;20055;-81
2023/06/07 11:30:11;;;;;;;8.48;4.80;;;;;;;;;;4951493;29;20484;-81
2023/06/07 11:32:59;;;;;;;6.35;4.38;;;;;;;;;;4951107;29;20047;-81
2023/06/07 11:35:45;;;;;;;7.05;4.80;;;;;;;;;;4942884;29;20039;-81
2023/06/07 11:38:31;;;;;;;6.75;4.53;;;;;;;;;;4963766;28;20470;-82
2023/06/07 11:41:17;;;;;;;6.40;4.72;;;;;;;;;;4951351;29;20043;-81
2023/06/07 11:44:03;;;;;;;8.73;4.97;;;;;;;;;;4951735;29;20403;-81
2023/06/07 11:46:49;;;;;;;5.55;4.50;;;;;;;;;;4953721;29;20055;-81
2023/06/07 11:49:38;;;;;;;8.13;4.80;;;;;;;;;;4960052;28;20047;-82
2023/06/07 11:52:24;;;;;;;6.97;4.68;;;;;;;;;;4954740;29;20047;-82
2023/06/07 11:55:10;;;;;;;5.88;4.72;;;;;;;;;;4954165;29;20039;-81
2023/06/07 11:57:55;;;;;;;9.48;5.07;;;;;;;;;;4954807;29;20051;-81
2023/06/07 12:00:44;;;;;;;8.55;5.13;;;;;;;;;;4959332;28;20055;-82
2023/06/07 12:03:29;;;;;;;7.75;5.60;;;;;;;;;;4954502;29;20063;-82
2023/06/07 12:06:15;;;;;;;14.65;5.43;;;;;;;;;;4954768;29;20047;-81
2023/06/07 12:09:00;;;;;;;13.70;5.13;;;;;;;;;;4953278;29;20046;-81
2023/06/07 12:11:47;;;;;;;9.85;5.53;;;;;;;;;;4953918;29;20047;-82
2023/06/07 12:14:33;;;;;;;10.35;5.35;;;;;;;;;;4952168;29;20051;-82
2023/06/07 12:17:20;;;;;;;10.77;5.68;;;;;;;;;;4952434;29;20051;-82
2023/06/07 12:20:15;;;;;;;6.82;5.20;;;;;;;;;;4954516;29;20047;-83
2023/06/07 12:23:04;;;;;;;9.20;5.30;;;;;;;;;;4953577;28;20039;-82
2023/06/07 12:25:50;;;;;;;5.70;4.22;;;;;;;;;;4954128;29;20051;-81
2023/06/07 12:28:36;;;;;;;6.40;4.55;;;;;;;;;;4954172;29;20476;-82
2023/06/07 12:31:25;;;;;;;6.22;3.92;;;;;;;;;;4954220;29;20039;-81
2023/06/07 12:34:11;;;;;;;5.10;3.72;;;;;;;;;;4953993;28;20036;-81
2023/06/07 12:36:56;;;;;;;5.65;4.32;;;;;;;;;;4953873;29;20492;-81
2023/06/07 12:39:42;;;;;;;5.70;4.53;;;;;;;;;;4954193;29;20411;-82
2023/06/07 12:42:27;;;;;;;7.00;4.20;;;;;;;;;;4955114;29;20035;-80
2023/06/07 12:45:13;;;;;;;7.00;4.75;;;;;;;;;;4953716;29;20043;-80
2023/06/07 12:47:58;;;;;;;7.40;4.80;;;;;;;;;;4952414;28;20051;-81
2023/06/07 12:50:44;;;;;;;6.53;4.50;;;;;;;;;;4953167;29;20036;-81
2023/06/07 12:53:30;;;;;;;6.80;4.10;;;;;;;;;;4959062;28;20054;-80
2023/06/07 12:56:16;;;;;;;7.30;4.35;;;;;;;;;;4956508;28;20047;-82
2023/06/07 12:59:01;;;;;;;6.30;4.55;;;;;;;;;;4953350;29;20043;-81
2023/06/07 13:01:47;;;;;;;6.60;4.25;;;;;;;;;;4953822;29;20043;-81
2023/06/07 13:04:32;;;;;;;5.60;3.55;;;;;;;;;;4938550;29;20051;-81
2023/06/07 13:07:21;;;;;;;9.40;4.32;;;;;;;;;;4953105;29;20512;-81
2023/06/07 13:10:10;;;;;;;5.22;3.97;;;;;;;;;;4944953;28;20036;-81
2023/06/07 13:12:56;;;;;;;4.82;3.55;;;;;;;;;;4952320;29;20051;-80
2023/06/07 13:15:42;;;;;;;7.22;3.47;;;;;;;;;;4953255;29;21853;-81
2023/06/07 13:18:28;;;;;;;5.43;3.72;;;;;;;;;;4952688;29;20403;-80
2023/06/07 13:21:15;;;;;;;6.75;3.90;;;;;;;;;;4953212;29;20047;-80
2023/06/07 13:24:00;;;;;;;6.03;3.70;;;;;;;;;;4952686;29;20035;-81
2023/06/07 13:26:48;;;;;;;5.22;3.83;;;;;;;;;;4952965;29;20043;-81
2023/06/07 13:29:34;;;;;;;6.55;3.88;;;;;;;;;;4952642;29;20036;-79
2023/06/07 13:32:19;;;;;;;5.50;3.83;;;;;;;;;;4952768;29;20039;-80
2023/06/07 13:35:04;;;;;;;4.80;3.40;;;;;;;;;;4938166;29;20051;-80
2023/06/07 13:37:51;;;;;;;6.78;2.75;;;;;;;;;;4952221;28;20043;-80
2023/06/07 13:40:36;;;;;;;5.43;3.63;;;;;;;;;;4952846;29;20039;-81
2023/06/07 13:43:22;;;;;;;11.02;5.10;;;;;;;;;;4958038;28;20043;-81
2023/06/07 13:46:07;;;;;;;7.03;3.65;;;;;;;;;;4957871;28;20046;-81
2023/06/07 13:48:53;;;;;;;7.10;4.68;;;;;;;;;;4952698;29;20063;-81
2023/06/07 13:51:38;;;;;;;9.90;6.40;;;;;;;;;;4951883;29;20043;-82
2023/06/07 13:54:23;;;;;;;10.35;4.40;;;;;;;;;;4952206;29;20403;-79
2023/06/07 13:57:10;;;;;;;4.80;3.22;;;;;;;;;;4959192;28;20055;-80
2023/06/07 13:59:57;;;;;;;5.97;3.50;;;;;;;;;;4952601;28;20035;-80
2023/06/07 14:02:42;;;;;;;7.93;3.85;;;;;;;;;;4952305;29;20043;-81
2023/06/07 14:05:29;;;;;;;8.80;4.15;;;;;;;;;;4952418;29;20043;-80
2023/06/07 14:08:17;;;;;;;9.63;3.92;;;;;;;;;;4951923;28;20039;-81
2023/06/07 14:11:04;;;;;;;6.20;3.70;;;;;;;;;;4957683;28;20058;-80
2023/06/07 14:13:49;;;;;;;4.55;3.33;;;;;;;;;;4950975;29;20488;-84
2023/06/07 14:16:34;;;;;;;6.00;4.15;;;;;;;;;;4931139;28;20047;-82
2023/06/07 14:19:20;;;;;;;6.07;3.72;;;;;;;;;;4958470;28;20039;-81
2023/06/07 14:22:05;;;;;;;4.82;3.78;;;;;;;;;;4952080;29;20043;-81
2023/06/07 14:24:51;;;;;;;8.23;4.68;;;;;;;;;;4951867;29;20419;-81
2023/06/07 14:27:37;;;;;;;7.30;3.50;;;;;;;;;;4951752;28;20043;-81
2023/06/07 14:30:22;;;;;;;5.75;3.50;;;;;;;;;;4936600;29;20047;-80
2023/06/07 14:33:07;;;;;;;3.50;2.90;;;;;;;;;;4951674;29;20043;-81
2023/06/07 14:35:52;;;;;;;6.65;4.05;;;;;;;;;;4951745;29;20047;-81
2023/06/07 14:38:38;;;;;;;6.55;4.15;;;;;;;;;;4951800;29;20040;-81
2023/06/07 14:41:25;;;;;;;6.68;4.82;;;;;;;;;;4957532;28;20051;-80
2023/06/07 14:44:10;;;;;;;7.32;5.88;;;;;;;;;;4950719;29;20047;-81
2023/06/07 14:46:55;;;;;;;7.15;4.72;;;;;;;;;;4956281;28;20043;-81
2023/06/07 14:49:41;;;;;;;7.03;4.22;;;;;;;;;;4951380;29;20035;-80
2023/06/07 14:52:27;;;;;;;6.68;3.90;;;;;;;;;;4952217;29;20040;-80
2023/06/07 14:55:12;;;;;;;11.18;4.65;;;;;;;;;;4950743;29;20051;-81
2023/06/07 14:58:00;;;;;;;8.27;4.90;;;;;;;;;;4951587;29;20044;-81
2023/06/07 15:00:45;;;;;;;9.90;4.65;;;;;;;;;;4951499;29;20051;-80
2023/06/07 15:03:31;;;;;;;8.55;4.35;;;;;;;;;;4950344;29;20388;-80
2023/06/07 15:06:17;;;;;;;4.95;4.03;;;;;;;;;;4951610;29;20035;-82
2023/06/07 15:09:03;;;;;;;9.48;4.50;;;;;;;;;;4951319;29;20054;-81
2023/06/07 15:11:49;;;;;;;16.17;8.93;;;;;;;;;;4951111;29;20479;-82
2023/06/07 15:14:35;;;;;;;10.63;7.05;;;;;;;;;;4950620;29;20047;-81
2023/06/07 15:17:20;;;;;;;6.85;4.82;;;;;;;;;;4950308;29;20043;-80
2023/06/07 15:20:07;;;;;;;8.30;5.22;;;;;;;;;;4951832;28;20043;-81
2023/06/07 15:22:52;;;;;;;5.72;3.83;;;;;;;;;;4955180;29;20059;-81
2023/06/07 15:25:38;;;;;;;7.45;4.85;;;;;;;;;;4953598;29;20500;-82
2023/06/07 15:28:23;;;;;;;6.20;4.43;;;;;;;;;;4955522;29;20051;-83
2023/06/07 15:31:10;;;;;;;6.75;4.50;;;;;;;;;;4960077;28;20043;-81
2023/06/07 15:33:57;;;;;;;9.02;5.00;;;;;;;;;;4954892;29;20047;-81
2023/06/07 15:36:42;;;;;;;7.45;5.15;;;;;;;;;;4946961;28;20432;-81
2023/06/07 15:39:27;;;;;;;5.63;4.28;;;;;;;;;;4954701;29;20055;-81
2023/06/07 15:42:14;;;;;;;7.72;4.95;;;;;;;;;;4953583;28;20047;-81
2023/06/07 15:44:59;;;;;;;8.57;4.20;;;;;;;;;;4954791;29;20492;-81
2023/06/07 15:47:58;;;;;;;5.30;3.80;;;;;;;;;;4955269;29;20050;-80
2023/06/07 15:50:44;;;;;;;84.38;31.73;;;;;;;;;;4954370;29;20043;-81
2023/06/07 15:53:29;;;;;;;15.43;6.13;;;;;;;;;;4940438;29;20043;-81
2023/06/07 15:56:16;;;;;;;14.60;7.95;;;;;;;;;;4954352;29;20051;-81
2023/06/07 15:59:01;;;;;;;8.90;5.80;;;;;;;;;;4954075;29;20043;-82
2023/06/07 16:01:46;;;;;;;6.85;3.88;;;;;;;;;;4940049;29;20407;-81
2023/06/07 16:04:32;;;;;;;6.38;4.80;;;;;;;;;;4953127;28;20051;-81
2023/06/07 16:07:18;;;;;;;6.07;4.20;;;;;;;;;;4953736;29;20047;-81
2023/06/07 16:10:04;;;;;;;6.72;4.35;;;;;;;;;;4946943;29;20047;-80
2023/06/07 16:12:54;;;;;;;10.38;5.15;;;;;;;;;;4946480;28;20043;-81
2023/06/07 16:15:39;;;;;;;9.23;6.22;;;;;;;;;;4946349;28;20043;-82
2023/06/07 16:18:25;;;;;;;8.07;4.78;;;;;;;;;;4954005;29;20039;-82
2023/06/07 16:21:10;;;;;;;5.47;4.18;;;;;;;;;;4954284;29;20504;-82
2023/06/07 16:23:56;;;;;;;7.65;4.97;;;;;;;;;;4954150;29;20392;-81
2023/06/07 16:26:42;;;;;;;6.50;4.60;;;;;;;;;;4953842;29;20096;-82
2023/06/07 16:29:27;;;;;;;6.22;4.53;;;;;;;;;;4953472;29;20481;-82
2023/06/07 16:32:13;;;;;;;6.03;5.00;;;;;;;;;;4951974;28;20051;-82
2023/06/07 16:34:58;;;;;;;7.57;4.60;;;;;;;;;;4939548;29;20035;-82
2023/06/07 16:37:44;;;;;;;6.22;4.18;;;;;;;;;;4952477;28;20467;-83